Aérodrome :
LOGIN :

S'inscrire | Disclaimer

   EN    FR    IT 

 










Légende :    VFR   VFR Marginal   IFR   IFR Intensif   IFR Très Intensif
Visi : 
Plafond : 
>= 8 km
>= 3000ft
5 à 8 km
1000 à 3000 ft
1500m à 5 km
500 à 1000 ft
800 à 1500m
200 à 500 ft
< 800m
< 200 ft
Symboles :   Orages  Brouillard  Fortes neiges  Fortes précipitations  Vent > 20 kt
SIGMETs :   Divers  Orages  Givrage  Turbulence  Onde Orograph.  Cendres Volcan.







- Altitude de l'aérodrome : 870 ft
- Code IATA : ETZ
- Voir les cartes d'approche


LFJL - Metz Nancy Lorraine

DERNIER METAR :
  • 242300Z AUTO 13008KT 9000 NSC 14/13 Q1018 BECMG 4000 BR

METARs EXPIRÉS :
  • 242230Z AUTO 14008KT 9000 NSC 15/14 Q1018 BECMG 4000 BR
  • 242200Z AUTO 17009KT CAVOK 15/14 Q1018 BECMG 4000 BR
  • 242130Z AUTO 16009KT CAVOK 15/14 Q1018 BECMG 4000 BR
  • 242100Z AUTO 14008KT CAVOK 15/13 Q1018 BECMG 4000 BR
  • 242030Z AUTO 11007KT CAVOK 16/13 Q1018 BECMG 4000 BR

TAF AMD TAF LFJL
Valide du 24 à 18h jusqu'au 25 à 18h UTC


241839Z 2418/2518 VRB04KT 9999 FEW035
PROB30
TEMPO 2418/2420 4000 -TSRA SCT030CB
BECMG 2421/2424 4000 BR
PROB40 2502/2507 0800 BCFG BKN002
BECMG 2507/2509 09005KT 9999 NSW SCT015
BECMG 2512/2515 CAVOK
Pas de NOTAMs connus pour ce terrain.



MET'MAP, la Météo Aéronautique d'un coup d'oeil ! - Copyright ORBIFLY Décembre 2007 - Disclaimer

ORBIFLY MET'MAP TEAM :

Programmation & Développement : Alexandra Zaïnal
Conception & Développement : Baudouin d'Aumeries
Co-Programmation & Développement : Marc-Olivier Méhu
Soutien technique & logistique : Manuel Goepfert

Contact : metmap@orbifly.com




SOURCES & CREDITS :

   NOAA